createdAt,value
2022-12-16T00:01:26.323Z,-0.55
2022-12-16T00:03:55.589Z,-0.64
2022-12-16T00:06:25.029Z,-0.46
2022-12-16T00:08:52.157Z,-0.40
2022-12-16T00:11:20.142Z,-0.41
2022-12-16T00:13:47.887Z,-0.35
2022-12-16T00:16:17.326Z,-0.53
2022-12-16T00:18:45.241Z,-0.51
2022-12-16T00:21:12.251Z,-0.34
2022-12-16T00:23:41.930Z,-0.30
2022-12-16T00:26:09.490Z,-0.38
2022-12-16T00:28:36.784Z,-0.46
2022-12-16T00:31:04.812Z,-0.44
2022-12-16T00:33:33.355Z,-0.16
2022-12-16T00:36:00.673Z,-0.16
2022-12-16T00:38:27.975Z,-0.11
2022-12-16T00:40:55.114Z,-0.15
2022-12-16T00:43:22.353Z,-0.11
2022-12-16T00:45:49.798Z,-0.13
2022-12-16T00:48:19.729Z,-0.16
2022-12-16T00:50:50.524Z,-0.12
2022-12-16T00:53:20.860Z,-0.13
2022-12-16T00:55:48.041Z,-0.11
2022-12-16T00:58:15.341Z,-0.11
2022-12-16T01:00:42.451Z,-0.24
2022-12-16T01:03:09.714Z,-0.24
2022-12-16T01:05:38.623Z,-0.02
2022-12-16T01:08:06.115Z,-0.08
2022-12-16T01:10:33.285Z,-0.27
2022-12-16T01:13:00.319Z,-0.20
2022-12-16T01:15:27.333Z,-0.29
2022-12-16T01:17:54.324Z,-0.11
2022-12-16T01:20:22.616Z,-0.04
2022-12-16T01:22:49.667Z,-0.04
2022-12-16T01:25:17.853Z,-0.03
2022-12-16T01:27:44.899Z,-0.17
2022-12-16T01:30:12.515Z,-0.13
2022-12-16T01:32:39.562Z,0.03
2022-12-16T01:35:18.113Z,-0.07
2022-12-16T01:37:50.625Z,0.04
2022-12-16T01:40:21.379Z,-0.11
2022-12-16T01:42:48.372Z,0.04
2022-12-16T01:45:36.104Z,0.25
2022-12-16T01:48:27.464Z,0.34
2022-12-16T01:50:56.994Z,0.46
2022-12-16T01:56:10.922Z,0.30
2022-12-16T01:58:40.720Z,0.34
2022-12-16T02:01:07.830Z,0.28
2022-12-16T02:03:37.392Z,0.18
2022-12-16T02:06:06.537Z,0.27
2022-12-16T02:08:33.576Z,0.28
2022-12-16T02:14:24.163Z,0.42
2022-12-16T02:17:01.090Z,0.47
2022-12-16T02:19:40.253Z,0.51
2022-12-16T02:22:25.408Z,0.40
2022-12-16T02:25:29.817Z,0.38
2022-12-16T02:31:53.927Z,0.29
2022-12-16T02:34:30.687Z,0.08
2022-12-16T02:37:06.304Z,0.20
2022-12-16T02:39:42.564Z,0.18
2022-12-16T02:42:36.250Z,0.30
2022-12-16T02:47:49.827Z,0.57
2022-12-16T02:50:22.819Z,0.52
2022-12-16T02:52:51.071Z,0.36
2022-12-16T02:55:18.214Z,0.50
2022-12-16T02:58:00.599Z,0.48
2022-12-16T03:03:45.613Z,0.38
2022-12-16T03:06:15.372Z,0.11
2022-12-16T03:08:49.488Z,0.14
2022-12-16T03:11:16.544Z,0.10
2022-12-16T03:13:48.303Z,0.11
2022-12-16T03:16:18.790Z,0.18
2022-12-16T03:21:41.771Z,0.36
2022-12-16T03:24:13.848Z,0.22
2022-12-16T03:26:51.665Z,0.32
2022-12-16T03:29:50.912Z,0.41
2022-12-16T03:32:30.847Z,0.36
2022-12-16T03:38:07.196Z,0.17
2022-12-16T03:40:35.479Z,0.01
2022-12-16T03:43:03.753Z,0.16
2022-12-16T03:45:38.620Z,0.14
2022-12-16T03:48:11.259Z,0.14
2022-12-16T03:53:26.511Z,0.48
2022-12-16T03:55:54.534Z,0.41
2022-12-16T03:58:21.913Z,0.42
2022-12-16T04:00:48.889Z,0.23
2022-12-16T04:03:16.058Z,0.30
2022-12-16T04:05:43.140Z,0.37
2022-12-16T04:11:12.892Z,0.35
2022-12-16T04:13:58.557Z,0.29
2022-12-16T04:16:47.980Z,0.34
2022-12-16T04:19:49.879Z,0.34
2022-12-16T04:22:41.239Z,0.29
2022-12-16T04:27:58.712Z,0.19
2022-12-16T04:30:27.840Z,0.32
2022-12-16T04:33:30.783Z,0.38
2022-12-16T04:36:16.592Z,0.43
2022-12-16T04:39:02.197Z,0.33
2022-12-16T04:45:05.676Z,0.17
2022-12-16T04:47:56.938Z,0.37
2022-12-16T04:50:43.183Z,0.29
2022-12-16T04:53:28.878Z,0.19
2022-12-16T04:56:14.747Z,0.15
2022-12-16T05:02:03.718Z,0.14
2022-12-16T05:04:49.268Z,0.03
2022-12-16T05:07:38.494Z,0.11
2022-12-16T05:10:25.970Z,0.07
2022-12-16T05:13:13.031Z,0.18
2022-12-16T05:15:59.435Z,0.06
2022-12-16T05:18:45.148Z,-0.16
2022-12-16T05:21:30.834Z,-0.10
2022-12-16T05:24:16.421Z,0.07
2022-12-16T05:27:02.208Z,0.12
2022-12-16T05:29:47.911Z,-0.03
2022-12-16T05:32:42.949Z,-0.12
2022-12-16T05:35:28.720Z,-0.17
2022-12-16T05:38:14.480Z,0.02
2022-12-16T05:41:00.229Z,-0.04
2022-12-16T05:43:45.651Z,0.02
2022-12-16T05:46:31.217Z,0.11
2022-12-16T05:49:17.079Z,-0.05
2022-12-16T05:52:02.636Z,-0.21
2022-12-16T05:54:48.405Z,-0.08
2022-12-16T05:57:34.063Z,-0.11
2022-12-16T06:00:19.763Z,0.02
2022-12-16T06:03:05.464Z,0.35
2022-12-16T06:05:50.974Z,0.24
2022-12-16T06:08:53.173Z,-0.03
2022-12-16T06:11:39.492Z,0.00
2022-12-16T06:14:25.230Z,-0.01
2022-12-16T06:17:10.997Z,-0.19
2022-12-16T06:19:56.857Z,-0.09
2022-12-16T06:22:42.208Z,-0.24
2022-12-16T06:25:27.656Z,-0.25
2022-12-16T06:28:13.001Z,-0.35
2022-12-16T06:30:58.751Z,-0.61
2022-12-16T06:33:44.403Z,-0.44
2022-12-16T06:36:30.256Z,-0.21
2022-12-16T06:39:15.693Z,-0.44
2022-12-16T06:42:01.286Z,-0.72
2022-12-16T06:44:47.073Z,-0.65
2022-12-16T06:47:32.786Z,-0.89
2022-12-16T06:50:18.436Z,-1.09
2022-12-16T06:53:04.525Z,-0.95
2022-12-16T06:55:50.656Z,-1.17
2022-12-16T06:58:36.282Z,-1.27
2022-12-16T07:01:22.023Z,-1.08
2022-12-16T07:04:07.506Z,-0.98
2022-12-16T07:06:53.034Z,-0.83
2022-12-16T07:09:38.436Z,-0.84
2022-12-16T07:12:24.279Z,-1.11
2022-12-16T07:15:10.129Z,-0.98
2022-12-16T07:17:55.691Z,-1.14
2022-12-16T07:20:41.403Z,-0.95
2022-12-16T07:23:27.075Z,-0.76
2022-12-16T07:26:12.646Z,-0.51
2022-12-16T07:28:58.439Z,-0.64
2022-12-16T07:31:44.184Z,-0.80
2022-12-16T07:34:29.499Z,-0.48
2022-12-16T07:37:15.198Z,-0.73
2022-12-16T07:40:00.780Z,-0.76
2022-12-16T07:42:46.443Z,-0.93
2022-12-16T07:45:44.933Z,-0.68
2022-12-16T07:48:31.156Z,-0.63
2022-12-16T07:51:16.781Z,-0.87
2022-12-16T07:54:02.375Z,-0.89
2022-12-16T07:56:47.806Z,-0.67
2022-12-16T07:59:33.343Z,-0.89
2022-12-16T08:02:19.250Z,-0.88
2022-12-16T08:05:04.758Z,-0.86
2022-12-16T08:07:58.019Z,-0.82
2022-12-16T08:10:44.915Z,-1.15
2022-12-16T08:13:31.091Z,-1.04
2022-12-16T08:16:16.659Z,-1.10
2022-12-16T08:19:07.580Z,-0.88
2022-12-16T08:21:56.358Z,-1.16
2022-12-16T08:24:41.967Z,-0.97
2022-12-16T08:27:27.706Z,-0.74
2022-12-16T08:30:13.478Z,-0.92
2022-12-16T08:33:03.301Z,-0.85
2022-12-16T08:35:52.794Z,-0.92
2022-12-16T08:38:38.304Z,-1.27
2022-12-16T08:41:24.095Z,-1.35
2022-12-16T08:44:26.515Z,-1.11
2022-12-16T08:47:11.911Z,-0.80
2022-12-16T08:49:59.879Z,-0.75
2022-12-16T08:52:49.457Z,-0.55
2022-12-16T08:55:34.786Z,-0.78
2022-12-16T08:58:20.468Z,-0.81
2022-12-16T09:01:07.808Z,-1.00
2022-12-16T09:03:54.809Z,-0.87
2022-12-16T09:06:41.391Z,-0.82
2022-12-16T09:09:28.548Z,-0.86
2022-12-16T09:12:14.035Z,-0.88
2022-12-16T09:14:59.779Z,-0.64
2022-12-16T09:17:45.339Z,-0.47
2022-12-16T09:20:31.042Z,-0.49
2022-12-16T09:23:21.188Z,-0.62
2022-12-16T09:26:06.865Z,-0.50
2022-12-16T09:29:10.799Z,-0.60
2022-12-16T09:31:56.211Z,-0.31
2022-12-16T09:34:41.967Z,-0.57
2022-12-16T09:37:27.705Z,-1.05
2022-12-16T09:40:13.277Z,-0.60
2022-12-16T09:43:10.228Z,-0.64
2022-12-16T09:46:11.971Z,-0.63
2022-12-16T09:49:24.219Z,-1.10
2022-12-16T09:52:16.555Z,-1.19
2022-12-16T09:55:05.532Z,-1.41
2022-12-16T09:57:54.462Z,-1.41
2022-12-16T10:00:43.439Z,-1.17
2022-12-16T10:03:55.584Z,-1.11
2022-12-16T10:06:53.772Z,-1.05
2022-12-16T10:09:54.702Z,-0.73
2022-12-16T10:12:44.151Z,-0.59
2022-12-16T10:15:44.289Z,-1.10
2022-12-16T10:18:44.965Z,-1.03
2022-12-16T10:21:37.108Z,-0.72
2022-12-16T10:24:30.933Z,-0.49
2022-12-16T10:27:33.126Z,-0.53
2022-12-16T10:30:20.294Z,-0.79
2022-12-16T10:33:08.840Z,-0.71
2022-12-16T10:36:10.688Z,-0.69
2022-12-16T10:39:35.647Z,-1.04
2022-12-16T10:42:22.643Z,-1.02
2022-12-16T10:45:13.707Z,-0.71
2022-12-16T10:47:59.382Z,-0.99
2022-12-16T10:50:45.655Z,-0.90
2022-12-16T10:53:38.044Z,-0.85
2022-12-16T10:56:42.624Z,-0.74
2022-12-16T10:59:28.780Z,-0.90
2022-12-16T11:02:21.902Z,-0.81
2022-12-16T11:05:08.759Z,-0.87
2022-12-16T11:08:10.986Z,-0.77
2022-12-16T11:11:02.001Z,-1.25
2022-12-16T11:13:50.166Z,-1.27
2022-12-16T11:16:38.101Z,-0.97
2022-12-16T11:19:37.228Z,-0.96
2022-12-16T11:22:57.635Z,-0.93
2022-12-16T11:25:43.184Z,-0.94
2022-12-16T11:28:36.620Z,-0.88
2022-12-16T11:31:41.868Z,-0.82
2022-12-16T11:34:28.510Z,-0.99
2022-12-16T11:37:19.507Z,-0.84
2022-12-16T11:40:07.014Z,-0.95
2022-12-16T11:42:53.170Z,-1.15
2022-12-16T11:45:40.120Z,-1.09
2022-12-16T11:48:50.206Z,-1.24
2022-12-16T11:51:37.880Z,-1.07
2022-12-16T11:54:39.865Z,-1.25
2022-12-16T11:57:40.141Z,-1.06
2022-12-16T12:00:31.875Z,-1.11
2022-12-16T12:03:25.410Z,-1.25
2022-12-16T12:06:29.843Z,-1.13
2022-12-16T12:09:22.084Z,-1.30
2022-12-16T12:12:16.362Z,-1.27
2022-12-16T12:15:11.772Z,-1.21
2022-12-16T12:18:07.619Z,-1.25
2022-12-16T12:21:00.590Z,-1.45
2022-12-16T12:24:17.743Z,-1.43
2022-12-16T12:27:21.658Z,-1.47
2022-12-16T12:30:19.180Z,-1.24
2022-12-16T12:33:27.190Z,-1.17
2022-12-16T12:36:13.096Z,-1.20
2022-12-16T12:39:30.736Z,-1.31
2022-12-16T12:42:31.615Z,-1.29
2022-12-16T12:45:40.114Z,-1.48
2022-12-16T12:48:38.855Z,-1.44
2022-12-16T12:51:43.985Z,-1.30
2022-12-16T12:54:55.402Z,-1.45
2022-12-16T12:57:43.024Z,-1.21
2022-12-16T13:00:40.989Z,-1.40
2022-12-16T13:03:57.543Z,-1.66
2022-12-16T13:06:43.831Z,-1.54
2022-12-16T13:09:49.679Z,-1.25
2022-12-16T13:12:35.150Z,-1.32
2022-12-16T13:15:23.438Z,-1.35
2022-12-16T13:18:17.944Z,-1.66
2022-12-16T13:21:05.015Z,-1.67
2022-12-16T13:23:56.703Z,-1.65
2022-12-16T13:26:45.085Z,-1.75
2022-12-16T13:29:39.384Z,-1.61
2022-12-16T13:32:30.821Z,-1.69
2022-12-16T13:35:35.100Z,-1.67
2022-12-16T13:38:37.543Z,-1.43
2022-12-16T13:41:45.814Z,-1.38
2022-12-16T13:44:32.096Z,-1.14
2022-12-16T13:47:17.588Z,-1.49
2022-12-16T13:50:09.456Z,-1.38
2022-12-16T13:52:58.057Z,-1.33
2022-12-16T13:55:53.981Z,-1.42
2022-12-16T13:58:54.977Z,-1.51
2022-12-16T14:01:53.736Z,-1.47
2022-12-16T14:04:48.574Z,-1.48
2022-12-16T14:07:39.398Z,-1.20
2022-12-16T14:10:25.125Z,-1.05
2022-12-16T14:13:28.865Z,-1.09
2022-12-16T14:16:23.368Z,-1.07
2022-12-16T14:19:32.197Z,-0.65
2022-12-16T14:22:41.787Z,-0.60
2022-12-16T14:25:39.216Z,-0.78
2022-12-16T14:28:48.112Z,-1.35
2022-12-16T14:31:50.640Z,-1.32
2022-12-16T14:34:53.454Z,-1.49
2022-12-16T14:37:57.029Z,-1.59
2022-12-16T14:40:52.034Z,-1.61
2022-12-16T14:43:40.787Z,-1.51
2022-12-16T14:46:51.078Z,-1.23
2022-12-16T14:49:44.648Z,-1.28
2022-12-16T14:52:36.520Z,-1.20
2022-12-16T14:55:44.576Z,-1.23
2022-12-16T14:58:38.384Z,-1.13
2022-12-16T15:01:39.471Z,-0.97
2022-12-16T15:04:35.077Z,-0.59
2022-12-16T15:07:30.867Z,-0.31
2022-12-16T15:10:18.330Z,-0.30
2022-12-16T15:13:07.185Z,-0.97
2022-12-16T15:16:01.972Z,-1.68
2022-12-16T15:18:52.620Z,-1.32
2022-12-16T15:21:38.557Z,-0.77
2022-12-16T15:24:29.093Z,-0.54
2022-12-16T15:27:39.646Z,-0.19
2022-12-16T15:30:53.945Z,-0.06
2022-12-16T15:33:42.774Z,0.04
2022-12-16T15:36:50.572Z,0.11
2022-12-16T15:39:48.269Z,0.17
2022-12-16T15:42:59.828Z,0.13
2022-12-16T15:45:45.334Z,0.16
2022-12-16T15:48:38.919Z,0.10
2022-12-16T15:52:02.074Z,-0.02
2022-12-16T15:54:48.090Z,-0.10
2022-12-16T15:57:54.229Z,-0.34
2022-12-16T16:00:46.995Z,-0.18
2022-12-16T16:03:48.025Z,-0.29
2022-12-16T16:06:42.621Z,-0.01
2022-12-16T16:09:41.447Z,0.08
2022-12-16T16:12:31.255Z,-0.33
2022-12-16T16:15:16.789Z,-0.30
2022-12-16T16:18:02.619Z,-0.43
2022-12-16T16:20:48.108Z,-0.35
2022-12-16T16:23:33.998Z,-0.31
2022-12-16T16:26:20.234Z,-0.41
2022-12-16T16:29:08.399Z,-0.34
2022-12-16T16:31:55.507Z,-0.58
2022-12-16T16:34:43.712Z,-0.33
2022-12-16T16:37:35.243Z,-0.29
2022-12-16T16:40:21.313Z,-0.48
2022-12-16T16:43:07.003Z,-0.41
2022-12-16T16:45:52.536Z,-0.61
2022-12-16T16:48:38.884Z,-0.49
2022-12-16T16:51:24.561Z,-0.31
2022-12-16T16:54:10.106Z,-0.33
2022-12-16T16:56:57.442Z,-0.07
2022-12-16T16:59:43.965Z,0.00
2022-12-16T17:02:41.151Z,0.02
2022-12-16T17:05:30.605Z,0.08
2022-12-16T17:08:16.610Z,-0.12
2022-12-16T17:11:02.664Z,-0.06
2022-12-16T17:13:48.289Z,0.07
2022-12-16T17:16:34.057Z,-0.07
2022-12-16T17:19:20.662Z,-0.04
2022-12-16T17:22:05.964Z,0.02
2022-12-16T17:25:02.251Z,0.16
2022-12-16T17:27:48.326Z,0.10
2022-12-16T17:30:46.997Z,0.06
2022-12-16T17:33:37.790Z,-0.67
2022-12-16T17:36:28.540Z,-0.87
2022-12-16T17:39:17.549Z,-0.49
2022-12-16T17:42:03.219Z,-0.20
2022-12-16T17:44:49.265Z,-0.04
2022-12-16T17:47:35.261Z,-0.19
2022-12-16T17:50:20.863Z,-0.08
2022-12-16T17:53:06.548Z,-0.03
2022-12-16T17:55:52.745Z,-0.07
2022-12-16T17:58:38.179Z,-0.06
2022-12-16T18:01:25.487Z,0.01
2022-12-16T18:04:11.208Z,0.05
2022-12-16T18:06:56.717Z,0.14
2022-12-16T18:09:43.088Z,0.29
2022-12-16T18:12:28.509Z,0.31
2022-12-16T18:15:14.376Z,0.26
2022-12-16T18:17:59.836Z,0.38
2022-12-16T18:20:59.230Z,0.41
2022-12-16T18:23:49.001Z,0.38
2022-12-16T18:26:34.905Z,0.36
2022-12-16T18:29:20.699Z,0.38
2022-12-16T18:32:07.240Z,0.27
2022-12-16T18:34:52.987Z,0.24
2022-12-16T18:37:38.797Z,0.16
2022-12-16T18:40:24.900Z,0.12
2022-12-16T18:43:10.625Z,-0.30
2022-12-16T18:45:56.419Z,-0.23
2022-12-16T18:48:41.908Z,-0.10
2022-12-16T18:51:27.741Z,-0.09
2022-12-16T18:54:13.388Z,-0.18
2022-12-16T18:56:59.182Z,-0.26
2022-12-16T18:59:44.520Z,-0.28
2022-12-16T19:02:30.886Z,-0.29
2022-12-16T19:05:16.505Z,-0.09
2022-12-16T19:08:02.232Z,0.00
2022-12-16T19:10:47.971Z,-0.03
2022-12-16T19:13:34.582Z,0.12
2022-12-16T19:16:20.381Z,0.19
2022-12-16T19:19:05.997Z,0.01
2022-12-16T19:21:52.344Z,0.00
2022-12-16T19:24:42.841Z,0.01
2022-12-16T19:27:28.921Z,-0.13
2022-12-16T19:30:14.513Z,-0.16
2022-12-16T19:33:00.107Z,-0.10
2022-12-16T19:35:45.670Z,0.01
2022-12-16T19:38:33.207Z,0.12
2022-12-16T19:41:18.821Z,0.09
2022-12-16T19:44:06.540Z,-0.13
2022-12-16T19:46:53.322Z,-0.20
2022-12-16T19:52:48.543Z,-0.46
2022-12-16T19:55:34.288Z,-0.18
2022-12-16T19:58:19.775Z,-0.02
2022-12-16T20:01:05.206Z,0.10
2022-12-16T20:03:52.364Z,0.00
2022-12-16T20:06:42.264Z,0.00
2022-12-16T20:09:27.681Z,-0.06
2022-12-16T20:12:13.236Z,-0.13
2022-12-16T20:14:58.878Z,-0.02
2022-12-16T20:17:44.590Z,-0.03
2022-12-16T20:20:30.507Z,-0.38
2022-12-16T20:23:15.886Z,-0.17
2022-12-16T20:26:01.640Z,-0.14
2022-12-16T20:28:49.117Z,-0.32
2022-12-16T20:31:34.740Z,-0.77
2022-12-16T20:34:20.511Z,-0.79
2022-12-16T20:37:06.180Z,-1.29
2022-12-16T20:40:08.322Z,-1.32
2022-12-16T20:42:55.061Z,-1.38
2022-12-16T20:45:42.021Z,-1.16
2022-12-16T20:48:33.136Z,-1.37
2022-12-16T20:51:26.519Z,-1.04
2022-12-16T20:54:13.015Z,-1.14
2022-12-16T20:56:58.738Z,-1.66
2022-12-16T20:59:44.240Z,-1.50
2022-12-16T21:02:33.644Z,-1.42
2022-12-16T21:05:20.700Z,-1.38
2022-12-16T21:08:06.304Z,-1.38
2022-12-16T21:10:52.108Z,-1.07
2022-12-16T21:14:28.617Z,-0.15
2022-12-16T21:14:42.997Z,-1.39
2022-12-16T21:17:00.134Z,-1.40
2022-12-16T21:19:45.835Z,-1.45
2022-12-16T21:22:31.733Z,-1.82
2022-12-16T21:25:22.795Z,-2.03
2022-12-16T21:28:14.086Z,-2.25
2022-12-16T21:30:59.761Z,-1.92
2022-12-16T21:33:45.725Z,-1.95
2022-12-16T21:36:31.347Z,-2.04
2022-12-16T21:39:17.017Z,-1.86
2022-12-16T21:42:02.830Z,-2.35
2022-12-16T21:44:48.681Z,-2.43
2022-12-16T21:47:34.367Z,-2.36
2022-12-16T21:50:20.200Z,-2.57
2022-12-16T21:53:06.435Z,-2.76
2022-12-16T21:55:52.051Z,-2.59
2022-12-16T21:58:37.733Z,-2.26
2022-12-16T22:01:23.807Z,-2.36
2022-12-16T22:04:09.347Z,-2.21
2022-12-16T22:06:55.031Z,-2.46
2022-12-16T22:09:40.643Z,-2.43
2022-12-16T22:12:26.061Z,-2.35
2022-12-16T22:15:11.780Z,-2.51
2022-12-16T22:17:58.589Z,-2.33
2022-12-16T22:20:45.240Z,-1.96
2022-12-16T22:23:31.386Z,-1.69
2022-12-16T22:26:20.702Z,-1.97
2022-12-16T22:29:06.359Z,-2.11
2022-12-16T22:31:52.003Z,-2.67
2022-12-16T22:34:37.485Z,-2.21
2022-12-16T22:37:22.962Z,-2.61
2022-12-16T22:40:08.714Z,-1.97
2022-12-16T22:42:56.343Z,-1.91
2022-12-16T22:45:42.791Z,-2.20
2022-12-16T22:48:31.616Z,-2.35
2022-12-16T22:51:17.216Z,-2.86
2022-12-16T22:54:02.776Z,-2.80
2022-12-16T22:56:48.309Z,-2.54
2022-12-16T22:59:33.878Z,-2.44
2022-12-16T23:02:19.551Z,-2.76
2022-12-16T23:05:05.245Z,-2.60
2022-12-16T23:07:50.816Z,-2.78
2022-12-16T23:10:37.271Z,-2.75
2022-12-16T23:13:22.870Z,-2.63
2022-12-16T23:16:08.616Z,-2.48
2022-12-16T23:18:56.639Z,-2.79
2022-12-16T23:21:42.345Z,-2.70
2022-12-16T23:24:31.200Z,-2.37
2022-12-16T23:27:17.186Z,-2.17
2022-12-16T23:30:02.883Z,-2.30
2022-12-16T23:32:48.884Z,-2.23
2022-12-16T23:35:34.483Z,-2.45
2022-12-16T23:38:25.115Z,-1.88
2022-12-16T23:41:17.345Z,-1.69
2022-12-16T23:44:04.180Z,-1.65
2022-12-16T23:46:49.993Z,-1.79
2022-12-16T23:49:35.640Z,-2.41
2022-12-16T23:52:21.206Z,-2.38
2022-12-16T23:55:06.819Z,-2.37
2022-12-16T23:57:52.270Z,-2.58
